sensor_id;sensor_type;location;lat;lon;timestamp;temperature;humidity
7212;DHT22;3647;48.792;9.802;2022-08-03T00:01:39;18.40;99.90
7212;DHT22;3647;48.792;9.802;2022-08-03T00:04:07;18.30;99.90
7212;DHT22;3647;48.792;9.802;2022-08-03T00:06:35;18.20;99.90
7212;DHT22;3647;48.792;9.802;2022-08-03T00:09:02;18.20;99.90
7212;DHT22;3647;48.792;9.802;2022-08-03T00:11:29;18.10;99.90
7212;DHT22;3647;48.792;9.802;2022-08-03T00:13:56;18.00;99.90
7212;DHT22;3647;48.792;9.802;2022-08-03T00:16:24;18.20;99.90
7212;DHT22;3647;48.792;9.802;2022-08-03T00:18:51;18.00;99.90
7212;DHT22;3647;48.792;9.802;2022-08-03T00:21:18;18.00;99.90
7212;DHT22;3647;48.792;9.802;2022-08-03T00:23:45;17.90;99.90
7212;DHT22;3647;48.792;9.802;2022-08-03T00:26:11;17.90;99.90
7212;DHT22;3647;48.792;9.802;2022-08-03T00:28:38;17.90;99.90
7212;DHT22;3647;48.792;9.802;2022-08-03T00:31:06;17.90;99.90
7212;DHT22;3647;48.792;9.802;2022-08-03T00:33:34;17.80;99.90
7212;DHT22;3647;48.792;9.802;2022-08-03T00:36:01;17.80;99.90
7212;DHT22;3647;48.792;9.802;2022-08-03T00:38:27;17.80;99.90
7212;DHT22;3647;48.792;9.802;2022-08-03T00:40:54;17.70;99.90
7212;DHT22;3647;48.792;9.802;2022-08-03T00:43:24;17.70;99.90
7212;DHT22;3647;48.792;9.802;2022-08-03T00:45:51;17.70;99.90
7212;DHT22;3647;48.792;9.802;2022-08-03T00:48:19;17.60;99.90
7212;DHT22;3647;48.792;9.802;2022-08-03T00:50:47;17.60;99.90
7212;DHT22;3647;48.792;9.802;2022-08-03T00:53:33;17.60;99.90
7212;DHT22;3647;48.792;9.802;2022-08-03T00:56:00;17.60;99.90
7212;DHT22;3647;48.792;9.802;2022-08-03T00:58:27;17.60;99.90
7212;DHT22;3647;48.792;9.802;2022-08-03T01:00:54;17.50;99.90
7212;DHT22;3647;48.792;9.802;2022-08-03T01:03:21;17.50;99.90
7212;DHT22;3647;48.792;9.802;2022-08-03T01:05:57;17.50;99.90
7212;DHT22;3647;48.792;9.802;2022-08-03T01:08:31;17.50;99.90
7212;DHT22;3647;48.792;9.802;2022-08-03T01:11:07;17.40;99.90
7212;DHT22;3647;48.792;9.802;2022-08-03T01:13:40;17.40;99.90
7212;DHT22;3647;48.792;9.802;2022-08-03T01:16:14;17.30;99.90
7212;DHT22;3647;48.792;9.802;2022-08-03T01:18:45;17.30;99.90
7212;DHT22;3647;48.792;9.802;2022-08-03T01:21:18;17.30;99.90
7212;DHT22;3647;48.792;9.802;2022-08-03T01:23:53;17.30;99.90
7212;DHT22;3647;48.792;9.802;2022-08-03T01:26:41;17.30;99.90
7212;DHT22;3647;48.792;9.802;2022-08-03T01:32:23;17.20;99.90
7212;DHT22;3647;48.792;9.802;2022-08-03T01:34:57;17.20;99.90
7212;DHT22;3647;48.792;9.802;2022-08-03T01:37:32;17.10;99.90
7212;DHT22;3647;48.792;9.802;2022-08-03T01:40:01;17.10;99.90
7212;DHT22;3647;48.792;9.802;2022-08-03T01:42:28;17.10;99.90
7212;DHT22;3647;48.792;9.802;2022-08-03T01:44:58;17.10;99.90
7212;DHT22;3647;48.792;9.802;2022-08-03T01:47:27;17.00;99.90
7212;DHT22;3647;48.792;9.802;2022-08-03T01:49:56;17.00;99.90
7212;DHT22;3647;48.792;9.802;2022-08-03T01:52:24;17.00;99.90
7212;DHT22;3647;48.792;9.802;2022-08-03T01:54:52;17.00;99.90
7212;DHT22;3647;48.792;9.802;2022-08-03T01:57:21;16.90;99.90
7212;DHT22;3647;48.792;9.802;2022-08-03T01:59:51;16.80;99.90
7212;DHT22;3647;48.792;9.802;2022-08-03T02:02:21;16.90;99.90
7212;DHT22;3647;48.792;9.802;2022-08-03T02:04:51;16.90;99.90
7212;DHT22;3647;48.792;9.802;2022-08-03T02:07:18;16.90;99.90
7212;DHT22;3647;48.792;9.802;2022-08-03T02:09:49;16.80;99.90
7212;DHT22;3647;48.792;9.802;2022-08-03T02:12:18;16.80;99.90
7212;DHT22;3647;48.792;9.802;2022-08-03T02:14:48;16.80;99.90
7212;DHT22;3647;48.792;9.802;2022-08-03T02:17:15;16.80;99.90
7212;DHT22;3647;48.792;9.802;2022-08-03T02:19:44;16.80;99.90
7212;DHT22;3647;48.792;9.802;2022-08-03T02:22:12;16.70;99.90
7212;DHT22;3647;48.792;9.802;2022-08-03T02:24:40;16.70;99.90
7212;DHT22;3647;48.792;9.802;2022-08-03T02:27:13;16.60;99.90
7212;DHT22;3647;48.792;9.802;2022-08-03T02:29:46;16.60;99.90
7212;DHT22;3647;48.792;9.802;2022-08-03T02:32:18;16.60;99.90
7212;DHT22;3647;48.792;9.802;2022-08-03T02:34:50;16.50;99.90
7212;DHT22;3647;48.792;9.802;2022-08-03T02:37:19;16.50;99.90
7212;DHT22;3647;48.792;9.802;2022-08-03T02:39:48;16.50;99.90
7212;DHT22;3647;48.792;9.802;2022-08-03T02:42:20;16.50;99.90
7212;DHT22;3647;48.792;9.802;2022-08-03T02:44:49;16.50;99.90
7212;DHT22;3647;48.792;9.802;2022-08-03T02:47:18;16.50;99.90
7212;DHT22;3647;48.792;9.802;2022-08-03T02:49:48;16.50;99.90
7212;DHT22;3647;48.792;9.802;2022-08-03T02:52:16;16.40;99.90
7212;DHT22;3647;48.792;9.802;2022-08-03T02:54:45;16.50;99.90
7212;DHT22;3647;48.792;9.802;2022-08-03T02:57:14;16.50;99.90
7212;DHT22;3647;48.792;9.802;2022-08-03T02:59:42;16.40;99.90
7212;DHT22;3647;48.792;9.802;2022-08-03T03:02:10;16.40;99.90
7212;DHT22;3647;48.792;9.802;2022-08-03T03:04:38;16.30;99.90
7212;DHT22;3647;48.792;9.802;2022-08-03T03:07:07;16.40;99.90
7212;DHT22;3647;48.792;9.802;2022-08-03T03:09:34;16.30;99.90
7212;DHT22;3647;48.792;9.802;2022-08-03T03:12:02;16.20;99.90
7212;DHT22;3647;48.792;9.802;2022-08-03T03:14:30;16.20;99.90
7212;DHT22;3647;48.792;9.802;2022-08-03T03:16:58;16.20;99.90
7212;DHT22;3647;48.792;9.802;2022-08-03T03:19:25;16.20;99.90
7212;DHT22;3647;48.792;9.802;2022-08-03T03:21:53;16.20;99.90
7212;DHT22;3647;48.792;9.802;2022-08-03T03:24:22;16.20;99.90
7212;DHT22;3647;48.792;9.802;2022-08-03T03:26:49;16.20;99.90
7212;DHT22;3647;48.792;9.802;2022-08-03T03:29:16;16.20;99.90
7212;DHT22;3647;48.792;9.802;2022-08-03T03:31:43;16.20;99.90
7212;DHT22;3647;48.792;9.802;2022-08-03T03:34:10;16.20;99.90
7212;DHT22;3647;48.792;9.802;2022-08-03T03:36:37;16.20;99.90
7212;DHT22;3647;48.792;9.802;2022-08-03T03:39:04;16.20;99.90
7212;DHT22;3647;48.792;9.802;2022-08-03T03:41:34;16.20;99.90
7212;DHT22;3647;48.792;9.802;2022-08-03T03:44:00;16.10;99.90
7212;DHT22;3647;48.792;9.802;2022-08-03T03:46:28;16.10;99.90
7212;DHT22;3647;48.792;9.802;2022-08-03T03:48:55;16.10;99.90
7212;DHT22;3647;48.792;9.802;2022-08-03T03:51:22;16.10;99.90
7212;DHT22;3647;48.792;9.802;2022-08-03T03:53:56;16.10;99.90
7212;DHT22;3647;48.792;9.802;2022-08-03T03:56:23;16.10;99.90
7212;DHT22;3647;48.792;9.802;2022-08-03T03:58:52;16.00;99.90
7212;DHT22;3647;48.792;9.802;2022-08-03T04:01:19;16.00;99.90
7212;DHT22;3647;48.792;9.802;2022-08-03T04:03:46;16.00;99.90
7212;DHT22;3647;48.792;9.802;2022-08-03T04:06:13;16.00;99.90
7212;DHT22;3647;48.792;9.802;2022-08-03T04:08:58;16.00;99.90
7212;DHT22;3647;48.792;9.802;2022-08-03T04:11:46;16.00;99.90
7212;DHT22;3647;48.792;9.802;2022-08-03T04:14:18;16.00;99.90
7212;DHT22;3647;48.792;9.802;2022-08-03T04:16:49;16.00;99.90
7212;DHT22;3647;48.792;9.802;2022-08-03T04:19:19;16.00;99.90
7212;DHT22;3647;48.792;9.802;2022-08-03T04:21:49;16.00;99.90
7212;DHT22;3647;48.792;9.802;2022-08-03T04:24:17;16.00;99.90
7212;DHT22;3647;48.792;9.802;2022-08-03T04:26:48;16.00;99.90
7212;DHT22;3647;48.792;9.802;2022-08-03T04:29:18;16.10;99.90
7212;DHT22;3647;48.792;9.802;2022-08-03T04:31:47;16.00;99.90
7212;DHT22;3647;48.792;9.802;2022-08-03T04:34:15;16.10;99.90
7212;DHT22;3647;48.792;9.802;2022-08-03T04:36:45;16.10;99.90
7212;DHT22;3647;48.792;9.802;2022-08-03T04:39:17;16.20;99.90
7212;DHT22;3647;48.792;9.802;2022-08-03T04:41:46;16.20;99.90
7212;DHT22;3647;48.792;9.802;2022-08-03T04:44:14;16.60;99.90
7212;DHT22;3647;48.792;9.802;2022-08-03T04:46:44;17.40;99.90
7212;DHT22;3647;48.792;9.802;2022-08-03T04:49:11;18.40;99.90
7212;DHT22;3647;48.792;9.802;2022-08-03T04:51:38;19.60;99.90
7212;DHT22;3647;48.792;9.802;2022-08-03T04:54:05;20.60;99.90
7212;DHT22;3647;48.792;9.802;2022-08-03T04:56:33;21.30;99.90
7212;DHT22;3647;48.792;9.802;2022-08-03T04:58:59;21.80;99.90
7212;DHT22;3647;48.792;9.802;2022-08-03T05:01:26;22.50;99.90
7212;DHT22;3647;48.792;9.802;2022-08-03T05:03:54;23.00;99.90
7212;DHT22;3647;48.792;9.802;2022-08-03T05:06:21;23.50;99.90
7212;DHT22;3647;48.792;9.802;2022-08-03T05:08:49;23.80;99.90
7212;DHT22;3647;48.792;9.802;2022-08-03T05:11:16;24.20;99.90
7212;DHT22;3647;48.792;9.802;2022-08-03T05:13:43;24.70;99.90
7212;DHT22;3647;48.792;9.802;2022-08-03T05:16:10;25.20;99.90
7212;DHT22;3647;48.792;9.802;2022-08-03T05:18:38;25.40;99.90
7212;DHT22;3647;48.792;9.802;2022-08-03T05:21:09;25.40;99.90
7212;DHT22;3647;48.792;9.802;2022-08-03T05:23:38;25.60;99.90
7212;DHT22;3647;48.792;9.802;2022-08-03T05:26:05;26.20;99.90
7212;DHT22;3647;48.792;9.802;2022-08-03T05:28:32;26.50;99.90
7212;DHT22;3647;48.792;9.802;2022-08-03T05:30:59;27.00;99.90
7212;DHT22;3647;48.792;9.802;2022-08-03T05:33:26;27.30;99.90
7212;DHT22;3647;48.792;9.802;2022-08-03T05:35:53;27.50;99.90
7212;DHT22;3647;48.792;9.802;2022-08-03T05:38:21;27.90;99.90
7212;DHT22;3647;48.792;9.802;2022-08-03T05:40:48;27.90;99.90
7212;DHT22;3647;48.792;9.802;2022-08-03T05:43:15;27.80;99.90
7212;DHT22;3647;48.792;9.802;2022-08-03T05:45:42;28.50;99.90
7212;DHT22;3647;48.792;9.802;2022-08-03T05:48:08;28.90;99.90
7212;DHT22;3647;48.792;9.802;2022-08-03T05:50:35;29.10;99.90
7212;DHT22;3647;48.792;9.802;2022-08-03T05:53:02;28.90;99.90
7212;DHT22;3647;48.792;9.802;2022-08-03T05:55:30;29.00;99.90
7212;DHT22;3647;48.792;9.802;2022-08-03T05:57:57;29.00;99.90
7212;DHT22;3647;48.792;9.802;2022-08-03T06:00:24;29.70;99.90
7212;DHT22;3647;48.792;9.802;2022-08-03T06:02:51;29.60;99.90
7212;DHT22;3647;48.792;9.802;2022-08-03T06:05:18;29.50;99.90
7212;DHT22;3647;48.792;9.802;2022-08-03T06:07:44;29.20;99.90
7212;DHT22;3647;48.792;9.802;2022-08-03T06:10:12;28.90;99.90
7212;DHT22;3647;48.792;9.802;2022-08-03T06:12:40;27.70;99.90
7212;DHT22;3647;48.792;9.802;2022-08-03T06:15:08;27.00;99.90
7212;DHT22;3647;48.792;9.802;2022-08-03T06:17:43;26.40;99.90
7212;DHT22;3647;48.792;9.802;2022-08-03T06:20:11;26.00;99.90
7212;DHT22;3647;48.792;9.802;2022-08-03T06:22:38;26.00;99.90
7212;DHT22;3647;48.792;9.802;2022-08-03T06:25:05;26.10;99.90
7212;DHT22;3647;48.792;9.802;2022-08-03T06:27:32;26.00;99.90
7212;DHT22;3647;48.792;9.802;2022-08-03T06:30:00;26.00;99.90
7212;DHT22;3647;48.792;9.802;2022-08-03T06:32:27;26.20;99.90
7212;DHT22;3647;48.792;9.802;2022-08-03T06:34:54;26.30;99.90
7212;DHT22;3647;48.792;9.802;2022-08-03T06:37:21;26.40;99.90
7212;DHT22;3647;48.792;9.802;2022-08-03T06:39:49;26.30;99.90
7212;DHT22;3647;48.792;9.802;2022-08-03T06:42:15;26.30;99.90
7212;DHT22;3647;48.792;9.802;2022-08-03T06:44:42;26.50;99.90
7212;DHT22;3647;48.792;9.802;2022-08-03T06:47:10;26.90;99.90
7212;DHT22;3647;48.792;9.802;2022-08-03T06:49:37;27.00;99.90
7212;DHT22;3647;48.792;9.802;2022-08-03T06:52:05;27.10;99.90
7212;DHT22;3647;48.792;9.802;2022-08-03T06:54:35;27.10;99.90
7212;DHT22;3647;48.792;9.802;2022-08-03T06:57:03;27.10;99.90
7212;DHT22;3647;48.792;9.802;2022-08-03T06:59:30;27.20;99.90
7212;DHT22;3647;48.792;9.802;2022-08-03T07:01:56;27.40;99.90
7212;DHT22;3647;48.792;9.802;2022-08-03T07:04:25;27.50;99.90
7212;DHT22;3647;48.792;9.802;2022-08-03T07:06:51;27.60;99.90
7212;DHT22;3647;48.792;9.802;2022-08-03T07:09:18;27.80;99.90
7212;DHT22;3647;48.792;9.802;2022-08-03T07:11:45;27.90;99.90
7212;DHT22;3647;48.792;9.802;2022-08-03T07:14:12;27.70;99.90
7212;DHT22;3647;48.792;9.802;2022-08-03T07:16:39;27.90;99.90
7212;DHT22;3647;48.792;9.802;2022-08-03T07:19:06;28.10;99.90
7212;DHT22;3647;48.792;9.802;2022-08-03T07:21:34;28.30;99.90
7212;DHT22;3647;48.792;9.802;2022-08-03T07:24:02;28.40;99.90
7212;DHT22;3647;48.792;9.802;2022-08-03T07:26:29;28.50;99.90
7212;DHT22;3647;48.792;9.802;2022-08-03T07:28:56;28.60;99.90
7212;DHT22;3647;48.792;9.802;2022-08-03T07:31:22;28.90;99.90
7212;DHT22;3647;48.792;9.802;2022-08-03T07:33:49;29.10;99.90
7212;DHT22;3647;48.792;9.802;2022-08-03T07:36:16;29.40;99.90
7212;DHT22;3647;48.792;9.802;2022-08-03T07:38:44;29.70;99.90
7212;DHT22;3647;48.792;9.802;2022-08-03T07:41:11;29.80;99.90
7212;DHT22;3647;48.792;9.802;2022-08-03T07:43:38;29.80;99.90
7212;DHT22;3647;48.792;9.802;2022-08-03T07:46:05;30.00;99.90
7212;DHT22;3647;48.792;9.802;2022-08-03T07:48:31;30.10;99.90
7212;DHT22;3647;48.792;9.802;2022-08-03T07:50:58;30.20;99.90
7212;DHT22;3647;48.792;9.802;2022-08-03T07:53:25;30.30;99.90
7212;DHT22;3647;48.792;9.802;2022-08-03T07:55:53;30.30;99.90
7212;DHT22;3647;48.792;9.802;2022-08-03T07:58:21;30.50;99.90
7212;DHT22;3647;48.792;9.802;2022-08-03T08:00:49;30.60;99.90
7212;DHT22;3647;48.792;9.802;2022-08-03T08:03:17;30.70;99.90
7212;DHT22;3647;48.792;9.802;2022-08-03T08:05:44;30.50;99.90
7212;DHT22;3647;48.792;9.802;2022-08-03T08:08:11;30.50;98.50
7212;DHT22;3647;48.792;9.802;2022-08-03T08:10:38;29.90;98.30
7212;DHT22;3647;48.792;9.802;2022-08-03T08:13:06;29.80;99.00
7212;DHT22;3647;48.792;9.802;2022-08-03T08:15:33;30.20;99.20
7212;DHT22;3647;48.792;9.802;2022-08-03T08:18:00;30.30;98.70
7212;DHT22;3647;48.792;9.802;2022-08-03T08:20:29;30.20;98.40
7212;DHT22;3647;48.792;9.802;2022-08-03T08:22:58;30.00;98.90
7212;DHT22;3647;48.792;9.802;2022-08-03T08:25:25;30.20;98.20
7212;DHT22;3647;48.792;9.802;2022-08-03T08:27:52;29.60;98.70
7212;DHT22;3647;48.792;9.802;2022-08-03T08:30:22;30.10;98.70
7212;DHT22;3647;48.792;9.802;2022-08-03T08:32:49;30.30;98.70
7212;DHT22;3647;48.792;9.802;2022-08-03T08:35:17;30.70;97.80
7212;DHT22;3647;48.792;9.802;2022-08-03T08:37:44;31.00;96.60
7212;DHT22;3647;48.792;9.802;2022-08-03T08:40:12;31.20;96.60
7212;DHT22;3647;48.792;9.802;2022-08-03T08:42:39;31.20;95.90
7212;DHT22;3647;48.792;9.802;2022-08-03T08:45:08;31.20;95.40
7212;DHT22;3647;48.792;9.802;2022-08-03T08:47:39;31.40;94.80
7212;DHT22;3647;48.792;9.802;2022-08-03T08:50:07;31.20;94.70
7212;DHT22;3647;48.792;9.802;2022-08-03T08:52:35;30.60;95.40
7212;DHT22;3647;48.792;9.802;2022-08-03T08:55:06;31.00;95.30
7212;DHT22;3647;48.792;9.802;2022-08-03T08:57:35;30.90;94.80
7212;DHT22;3647;48.792;9.802;2022-08-03T09:00:05;30.90;94.70
7212;DHT22;3647;48.792;9.802;2022-08-03T09:02:33;31.20;94.30
7212;DHT22;3647;48.792;9.802;2022-08-03T09:05:02;30.80;94.30
7212;DHT22;3647;48.792;9.802;2022-08-03T09:07:29;31.30;94.50
7212;DHT22;3647;48.792;9.802;2022-08-03T09:09:56;30.90;93.30
7212;DHT22;3647;48.792;9.802;2022-08-03T09:12:22;31.40;93.00
7212;DHT22;3647;48.792;9.802;2022-08-03T09:14:50;31.50;92.70
7212;DHT22;3647;48.792;9.802;2022-08-03T09:17:16;31.60;91.30
7212;DHT22;3647;48.792;9.802;2022-08-03T09:20:05;31.90;91.30
7212;DHT22;3647;48.792;9.802;2022-08-03T09:22:33;32.10;91.50
7212;DHT22;3647;48.792;9.802;2022-08-03T09:25:02;32.50;90.90
7212;DHT22;3647;48.792;9.802;2022-08-03T09:27:40;32.80;90.00
7212;DHT22;3647;48.792;9.802;2022-08-03T09:30:12;32.70;87.80
7212;DHT22;3647;48.792;9.802;2022-08-03T09:32:40;32.80;88.90
7212;DHT22;3647;48.792;9.802;2022-08-03T09:35:11;33.10;88.70
7212;DHT22;3647;48.792;9.802;2022-08-03T09:37:39;33.20;86.50
7212;DHT22;3647;48.792;9.802;2022-08-03T09:40:07;33.30;85.20
7212;DHT22;3647;48.792;9.802;2022-08-03T09:42:34;33.40;84.30
7212;DHT22;3647;48.792;9.802;2022-08-03T09:45:03;33.00;84.20
7212;DHT22;3647;48.792;9.802;2022-08-03T09:47:32;32.80;83.50
7212;DHT22;3647;48.792;9.802;2022-08-03T09:50:02;32.80;83.70
7212;DHT22;3647;48.792;9.802;2022-08-03T09:52:32;33.10;84.10
7212;DHT22;3647;48.792;9.802;2022-08-03T09:54:59;33.40;83.70
7212;DHT22;3647;48.792;9.802;2022-08-03T09:57:27;33.70;78.40
7212;DHT22;3647;48.792;9.802;2022-08-03T10:00:06;33.80;79.10
7212;DHT22;3647;48.792;9.802;2022-08-03T10:02:35;33.60;77.50
7212;DHT22;3647;48.792;9.802;2022-08-03T10:05:03;32.90;78.30
7212;DHT22;3647;48.792;9.802;2022-08-03T10:07:41;33.10;77.90
7212;DHT22;3647;48.792;9.802;2022-08-03T10:10:09;32.80;76.30
7212;DHT22;3647;48.792;9.802;2022-08-03T10:12:36;32.80;78.40
7212;DHT22;3647;48.792;9.802;2022-08-03T10:15:04;33.00;76.90
7212;DHT22;3647;48.792;9.802;2022-08-03T10:17:31;33.00;72.80
7212;DHT22;3647;48.792;9.802;2022-08-03T10:19:58;33.20;72.70
7212;DHT22;3647;48.792;9.802;2022-08-03T10:22:27;33.60;70.80
7212;DHT22;3647;48.792;9.802;2022-08-03T10:25:01;33.80;71.70
7212;DHT22;3647;48.792;9.802;2022-08-03T10:27:32;34.00;72.10
7212;DHT22;3647;48.792;9.802;2022-08-03T10:30:00;34.20;71.90
7212;DHT22;3647;48.792;9.802;2022-08-03T10:32:30;34.50;70.00
7212;DHT22;3647;48.792;9.802;2022-08-03T10:35:04;35.00;68.60
7212;DHT22;3647;48.792;9.802;2022-08-03T10:37:33;34.50;68.00
7212;DHT22;3647;48.792;9.802;2022-08-03T10:40:06;33.70;69.00
7212;DHT22;3647;48.792;9.802;2022-08-03T10:42:34;33.70;69.30
7212;DHT22;3647;48.792;9.802;2022-08-03T10:45:04;33.90;69.20
7212;DHT22;3647;48.792;9.802;2022-08-03T10:47:33;33.80;67.70
7212;DHT22;3647;48.792;9.802;2022-08-03T10:50:01;34.20;68.20
7212;DHT22;3647;48.792;9.802;2022-08-03T10:52:28;34.10;67.60
7212;DHT22;3647;48.792;9.802;2022-08-03T10:54:54;34.00;67.10
7212;DHT22;3647;48.792;9.802;2022-08-03T10:57:45;33.50;67.50
7212;DHT22;3647;48.792;9.802;2022-08-03T11:00:13;33.70;68.50
7212;DHT22;3647;48.792;9.802;2022-08-03T11:03:06;34.10;68.00
7212;DHT22;3647;48.792;9.802;2022-08-03T11:05:39;34.00;67.70
7212;DHT22;3647;48.792;9.802;2022-08-03T11:08:30;34.10;67.40
7212;DHT22;3647;48.792;9.802;2022-08-03T11:10:59;34.20;67.10
7212;DHT22;3647;48.792;9.802;2022-08-03T11:13:30;34.40;66.20
7212;DHT22;3647;48.792;9.802;2022-08-03T11:16:01;34.30;66.10
7212;DHT22;3647;48.792;9.802;2022-08-03T11:18:29;34.30;65.20
7212;DHT22;3647;48.792;9.802;2022-08-03T11:20:57;33.90;64.70
7212;DHT22;3647;48.792;9.802;2022-08-03T11:23:44;34.20;65.80
7212;DHT22;3647;48.792;9.802;2022-08-03T11:26:15;34.20;64.90
7212;DHT22;3647;48.792;9.802;2022-08-03T11:28:45;34.20;64.70
7212;DHT22;3647;48.792;9.802;2022-08-03T11:34:22;34.20;64.50
7212;DHT22;3647;48.792;9.802;2022-08-03T11:37:21;34.20;63.50
7212;DHT22;3647;48.792;9.802;2022-08-03T11:39:50;34.30;63.80
7212;DHT22;3647;48.792;9.802;2022-08-03T11:42:43;34.40;63.20
7212;DHT22;3647;48.792;9.802;2022-08-03T11:45:14;34.50;63.80
7212;DHT22;3647;48.792;9.802;2022-08-03T11:47:41;34.50;63.70
7212;DHT22;3647;48.792;9.802;2022-08-03T11:50:09;34.40;62.70
7212;DHT22;3647;48.792;9.802;2022-08-03T11:52:38;34.40;63.00
7212;DHT22;3647;48.792;9.802;2022-08-03T11:55:10;34.40;63.00
7212;DHT22;3647;48.792;9.802;2022-08-03T11:57:37;34.60;62.10
7212;DHT22;3647;48.792;9.802;2022-08-03T12:00:28;34.60;61.40
7212;DHT22;3647;48.792;9.802;2022-08-03T12:02:56;34.50;60.60
7212;DHT22;3647;48.792;9.802;2022-08-03T12:05:38;34.40;60.40
7212;DHT22;3647;48.792;9.802;2022-08-03T12:08:06;33.30;61.10
7212;DHT22;3647;48.792;9.802;2022-08-03T12:10:33;33.20;62.50
7212;DHT22;3647;48.792;9.802;2022-08-03T12:13:01;32.70;62.10
7212;DHT22;3647;48.792;9.802;2022-08-03T12:15:32;33.10;64.10
7212;DHT22;3647;48.792;9.802;2022-08-03T12:18:00;33.60;63.70
7212;DHT22;3647;48.792;9.802;2022-08-03T12:20:29;34.00;62.20
7212;DHT22;3647;48.792;9.802;2022-08-03T12:23:03;34.40;62.80
7212;DHT22;3647;48.792;9.802;2022-08-03T12:25:30;34.60;61.50
7212;DHT22;3647;48.792;9.802;2022-08-03T12:28:07;34.50;61.70
7212;DHT22;3647;48.792;9.802;2022-08-03T12:30:36;34.40;60.10
7212;DHT22;3647;48.792;9.802;2022-08-03T12:33:20;34.50;61.00
7212;DHT22;3647;48.792;9.802;2022-08-03T12:35:49;34.70;61.60
7212;DHT22;3647;48.792;9.802;2022-08-03T12:38:21;34.90;62.00
7212;DHT22;3647;48.792;9.802;2022-08-03T12:40:56;34.90;62.60
7212;DHT22;3647;48.792;9.802;2022-08-03T12:43:23;35.00;62.00
7212;DHT22;3647;48.792;9.802;2022-08-03T12:46:09;35.00;61.00
7212;DHT22;3647;48.792;9.802;2022-08-03T12:48:36;35.00;60.80
7212;DHT22;3647;48.792;9.802;2022-08-03T12:51:20;35.10;59.60
7212;DHT22;3647;48.792;9.802;2022-08-03T12:53:51;34.90;58.50
7212;DHT22;3647;48.792;9.802;2022-08-03T12:56:17;34.50;58.60
7212;DHT22;3647;48.792;9.802;2022-08-03T12:58:45;34.40;58.90
7212;DHT22;3647;48.792;9.802;2022-08-03T13:01:16;34.40;59.60
7212;DHT22;3647;48.792;9.802;2022-08-03T13:03:44;34.20;59.70
7212;DHT22;3647;48.792;9.802;2022-08-03T13:06:12;34.40;59.20
7212;DHT22;3647;48.792;9.802;2022-08-03T13:08:39;34.60;59.30
7212;DHT22;3647;48.792;9.802;2022-08-03T13:11:20;34.30;58.60
7212;DHT22;3647;48.792;9.802;2022-08-03T13:13:47;34.30;58.80
7212;DHT22;3647;48.792;9.802;2022-08-03T13:16:16;34.50;59.50
7212;DHT22;3647;48.792;9.802;2022-08-03T13:18:43;34.30;58.60
7212;DHT22;3647;48.792;9.802;2022-08-03T13:21:12;33.90;57.80
7212;DHT22;3647;48.792;9.802;2022-08-03T13:23:39;33.50;58.50
7212;DHT22;3647;48.792;9.802;2022-08-03T13:26:06;33.30;59.50
7212;DHT22;3647;48.792;9.802;2022-08-03T13:28:32;33.30;59.80
7212;DHT22;3647;48.792;9.802;2022-08-03T13:31:00;33.00;59.70
7212;DHT22;3647;48.792;9.802;2022-08-03T13:33:28;33.10;60.20
7212;DHT22;3647;48.792;9.802;2022-08-03T13:35:55;33.30;58.90
7212;DHT22;3647;48.792;9.802;2022-08-03T13:38:22;33.40;59.20
7212;DHT22;3647;48.792;9.802;2022-08-03T13:40:50;33.70;60.30
7212;DHT22;3647;48.792;9.802;2022-08-03T13:43:18;33.90;60.30
7212;DHT22;3647;48.792;9.802;2022-08-03T13:45:45;34.20;60.40
7212;DHT22;3647;48.792;9.802;2022-08-03T13:48:12;34.30;60.20
7212;DHT22;3647;48.792;9.802;2022-08-03T13:50:40;34.60;60.10
7212;DHT22;3647;48.792;9.802;2022-08-03T13:53:07;34.70;59.20
7212;DHT22;3647;48.792;9.802;2022-08-03T13:55:34;34.70;59.70
7212;DHT22;3647;48.792;9.802;2022-08-03T13:58:00;34.80;59.30
7212;DHT22;3647;48.792;9.802;2022-08-03T14:00:28;34.90;60.40
7212;DHT22;3647;48.792;9.802;2022-08-03T14:02:57;34.90;58.50
7212;DHT22;3647;48.792;9.802;2022-08-03T14:05:24;34.60;59.00
7212;DHT22;3647;48.792;9.802;2022-08-03T14:07:52;34.30;59.00
7212;DHT22;3647;48.792;9.802;2022-08-03T14:10:19;34.30;60.10
7212;DHT22;3647;48.792;9.802;2022-08-03T14:12:46;34.40;60.10
7212;DHT22;3647;48.792;9.802;2022-08-03T14:15:13;34.50;59.90
7212;DHT22;3647;48.792;9.802;2022-08-03T14:17:40;34.50;59.70
7212;DHT22;3647;48.792;9.802;2022-08-03T14:20:07;34.50;59.00
7212;DHT22;3647;48.792;9.802;2022-08-03T14:22:34;34.60;60.20
7212;DHT22;3647;48.792;9.802;2022-08-03T14:25:03;34.60;59.30
7212;DHT22;3647;48.792;9.802;2022-08-03T14:27:30;34.50;60.00
7212;DHT22;3647;48.792;9.802;2022-08-03T14:29:57;34.50;60.00
7212;DHT22;3647;48.792;9.802;2022-08-03T14:32:25;34.60;60.40
7212;DHT22;3647;48.792;9.802;2022-08-03T14:34:52;34.00;58.90
7212;DHT22;3647;48.792;9.802;2022-08-03T14:37:19;34.40;59.50
7212;DHT22;3647;48.792;9.802;2022-08-03T14:39:46;34.40;60.10
7212;DHT22;3647;48.792;9.802;2022-08-03T14:42:15;34.50;59.80
7212;DHT22;3647;48.792;9.802;2022-08-03T14:44:42;34.60;59.40
7212;DHT22;3647;48.792;9.802;2022-08-03T14:47:08;34.50;59.00
7212;DHT22;3647;48.792;9.802;2022-08-03T14:49:35;34.40;58.20
7212;DHT22;3647;48.792;9.802;2022-08-03T14:52:03;34.40;59.00
7212;DHT22;3647;48.792;9.802;2022-08-03T14:54:30;34.50;59.50
7212;DHT22;3647;48.792;9.802;2022-08-03T14:56:56;34.60;59.30
7212;DHT22;3647;48.792;9.802;2022-08-03T14:59:26;34.80;59.30
7212;DHT22;3647;48.792;9.802;2022-08-03T15:01:53;35.00;59.20
7212;DHT22;3647;48.792;9.802;2022-08-03T15:04:20;34.90;58.40
7212;DHT22;3647;48.792;9.802;2022-08-03T15:06:46;34.40;57.50
7212;DHT22;3647;48.792;9.802;2022-08-03T15:09:13;34.50;58.50
7212;DHT22;3647;48.792;9.802;2022-08-03T15:11:40;34.60;58.00
7212;DHT22;3647;48.792;9.802;2022-08-03T15:14:07;34.60;57.60
7212;DHT22;3647;48.792;9.802;2022-08-03T15:16:35;34.50;57.50
7212;DHT22;3647;48.792;9.802;2022-08-03T15:19:02;34.40;57.80
7212;DHT22;3647;48.792;9.802;2022-08-03T15:21:29;34.30;57.20
7212;DHT22;3647;48.792;9.802;2022-08-03T15:23:56;34.40;57.30
7212;DHT22;3647;48.792;9.802;2022-08-03T15:26:23;34.40;56.80
7212;DHT22;3647;48.792;9.802;2022-08-03T15:28:49;34.40;58.00
7212;DHT22;3647;48.792;9.802;2022-08-03T15:31:20;34.30;57.10
7212;DHT22;3647;48.792;9.802;2022-08-03T15:33:48;34.40;57.80
7212;DHT22;3647;48.792;9.802;2022-08-03T15:36:16;34.30;57.00
7212;DHT22;3647;48.792;9.802;2022-08-03T15:38:43;34.20;57.10
7212;DHT22;3647;48.792;9.802;2022-08-03T15:41:10;34.20;57.40
7212;DHT22;3647;48.792;9.802;2022-08-03T15:43:37;34.20;57.30
7212;DHT22;3647;48.792;9.802;2022-08-03T15:46:04;34.20;57.60
7212;DHT22;3647;48.792;9.802;2022-08-03T15:48:31;34.30;57.30
7212;DHT22;3647;48.792;9.802;2022-08-03T15:50:59;34.30;56.40
7212;DHT22;3647;48.792;9.802;2022-08-03T15:53:26;34.30;56.50
7212;DHT22;3647;48.792;9.802;2022-08-03T15:55:53;34.50;56.60
7212;DHT22;3647;48.792;9.802;2022-08-03T15:58:20;34.50;55.50
7212;DHT22;3647;48.792;9.802;2022-08-03T16:00:46;34.50;56.20
7212;DHT22;3647;48.792;9.802;2022-08-03T16:03:13;34.60;56.10
7212;DHT22;3647;48.792;9.802;2022-08-03T16:05:40;34.60;55.90
7212;DHT22;3647;48.792;9.802;2022-08-03T16:08:08;34.70;55.70
7212;DHT22;3647;48.792;9.802;2022-08-03T16:10:35;34.60;55.30
7212;DHT22;3647;48.792;9.802;2022-08-03T16:13:02;34.60;56.20
7212;DHT22;3647;48.792;9.802;2022-08-03T16:15:29;34.50;56.30
7212;DHT22;3647;48.792;9.802;2022-08-03T16:17:55;34.40;56.30
7212;DHT22;3647;48.792;9.802;2022-08-03T16:20:22;34.30;56.40